Time;durP1;ratioP1;P1;durP2;ratioP2;P2;SDS_P1;SDS_P2;PMS_P1;PMS_P2;Temp;Humidity;BMP_temperature;BMP_pressure;BME280_temperature;BME280_humidity;BME280_pressure;Samples;Min_cycle;Max_cycle;Signal;HPM_P1;HPM_P2
2023/10/11 00:00:40;;;;;;;;;;;;;;;13.92;45.46;102642.11;106966;1259;25388;-61
2023/10/11 00:03:28;;;;;;;;;;;;;;;13.89;45.31;102650.86;107165;1252;25308;-61
2023/10/11 00:05:55;;;;;;;;;;;;;;;13.86;45.52;102653.14;106957;1257;25107;-59
2023/10/11 00:08:39;;;;;;;;;;;;;;;13.85;45.67;102658.21;106535;1261;1003388;-59
2023/10/11 00:11:08;;;;;;;;;;;;;;;13.83;44.45;102648.63;107091;1257;25309;-60
2023/10/11 00:13:36;;;;;;;;;;;;;;;13.81;43.23;102643.75;107191;1251;25334;-59
2023/10/11 00:16:07;;;;;;;;;;;;;;;13.79;42.73;102641.32;106461;1263;1003449;-62
2023/10/11 00:18:34;;;;;;;;;;;;;;;13.76;42.14;102638.71;106410;1254;1003046;-61
2023/10/11 00:21:11;;;;;;;;;;;;;;;13.74;41.91;102636.12;107185;1255;23144;-59
2023/10/11 00:23:39;;;;;;;;;;;;;;;13.73;41.95;102635.23;106897;1267;22604;-60
2023/10/11 00:26:06;;;;;;;;;;;;;;;13.72;43.00;102634.89;106877;1274;25458;-61
2023/10/11 00:28:34;;;;;;;;;;;;;;;13.71;43.65;102633.86;107126;1251;22504;-61
2023/10/11 00:31:01;;;;;;;;;;;;;;;13.71;42.72;102640.48;107130;1254;25376;-61
2023/10/11 00:33:29;;;;;;;;;;;;;;;13.70;42.13;102641.54;107126;1253;25446;-61
2023/10/11 00:36:06;;;;;;;;;;;;;;;13.70;42.16;102643.29;107139;1254;25336;-59
2023/10/11 00:38:43;;;;;;;;;;;;;;;13.69;42.65;102647.48;106853;1267;25319;-61
2023/10/11 00:41:20;;;;;;;;;;;;;;;13.67;43.11;102643.29;106828;1266;24387;-62
2023/10/11 00:43:51;;;;;;;;;;;;;;;13.66;43.14;102646.45;106954;1253;25382;-61
2023/10/11 00:46:19;;;;;;;;;;;;;;;13.65;43.42;102639.64;106928;1257;22613;-61
2023/10/11 00:49:09;;;;;;;;;;;;;;;13.64;43.38;102636.86;107031;1253;22780;-61
2023/10/11 00:51:33;;;;;;;;;;;;;;;13.63;43.24;102641.92;106195;1266;1003559;-62
2023/10/11 00:54:00;;;;;;;;;;;;;;;13.62;42.97;102642.09;106851;1262;25492;-61
2023/10/11 00:56:33;;;;;;;;;;;;;;;13.62;42.92;102643.14;107039;1266;25442;-62
2023/10/11 00:59:03;;;;;;;;;;;;;;;13.62;43.19;102646.98;106762;1262;25458;-61
2023/10/11 01:01:33;;;;;;;;;;;;;;;13.62;43.44;102646.47;106945;1257;22521;-61
2023/10/11 01:04:00;;;;;;;;;;;;;;;13.61;43.43;102646.12;107085;1257;25379;-63
2023/10/11 01:06:28;;;;;;;;;;;;;;;13.61;43.82;102644.20;107076;1254;25496;-62
2023/10/11 01:08:55;;;;;;;;;;;;;;;13.61;44.56;102641.23;107039;1253;25394;-59
2023/10/11 01:11:22;;;;;;;;;;;;;;;13.60;45.25;102643.50;106321;1256;1003005;-60
2023/10/11 01:13:52;;;;;;;;;;;;;;;13.59;45.76;102641.59;107052;1270;22500;-60
2023/10/11 01:16:26;;;;;;;;;;;;;;;13.55;46.13;102641.44;106974;1269;25314;-61
2023/10/11 01:18:54;;;;;;;;;;;;;;;13.52;46.02;102640.56;107186;1257;25305;-62
2023/10/11 01:21:21;;;;;;;;;;;;;;;13.49;45.77;102638.83;107137;1263;25299;-62
2023/10/11 01:23:51;;;;;;;;;;;;;;;13.47;44.71;102638.48;107164;1257;25299;-62
2023/10/11 01:26:18;;;;;;;;;;;;;;;13.45;43.92;102636.94;107254;1254;25336;-61
2023/10/11 01:28:46;;;;;;;;;;;;;;;13.44;43.42;102640.59;107101;1251;25259;-61
2023/10/11 01:31:13;;;;;;;;;;;;;;;13.44;42.68;102646.52;107205;1254;25318;-61
2023/10/11 01:33:43;;;;;;;;;;;;;;;13.43;42.31;102644.96;107087;1254;25479;-61
2023/10/11 01:36:14;;;;;;;;;;;;;;;13.44;42.65;102649.14;107309;1262;25309;-61
2023/10/11 01:38:48;;;;;;;;;;;;;;;13.43;42.67;102652.81;106962;1266;22508;-62
2023/10/11 01:41:16;;;;;;;;;;;;;;;13.43;42.85;102658.57;107135;1257;25383;-61
2023/10/11 01:43:45;;;;;;;;;;;;;;;13.44;42.59;102659.42;107195;1263;25309;-61
2023/10/11 01:46:15;;;;;;;;;;;;;;;13.43;42.27;102659.95;107161;1257;25308;-61
2023/10/11 01:48:45;;;;;;;;;;;;;;;13.43;42.36;102662.23;106878;1266;22494;-61
2023/10/11 01:51:21;;;;;;;;;;;;;;;13.43;42.86;102663.95;107158;1254;22504;-61
2023/10/11 01:53:48;;;;;;;;;;;;;;;13.44;43.79;102669.55;107168;1257;25306;-61
2023/10/11 01:56:15;;;;;;;;;;;;;;;13.44;44.57;102675.11;106382;1256;1003386;-61
2023/10/11 01:58:42;;;;;;;;;;;;;;;13.44;44.34;102678.77;107115;1263;25296;-61
2023/10/11 02:01:23;;;;;;;;;;;;;;;13.43;44.15;102680.70;107195;1260;25306;-61
2023/10/11 02:03:56;;;;;;;;;;;;;;;13.43;43.35;102678.08;107211;1254;25324;-61
2023/10/11 02:06:23;;;;;;;;;;;;;;;13.42;43.48;102676.86;106248;1266;1003290;-59
2023/10/11 02:08:51;;;;;;;;;;;;;;;13.43;43.69;102674.43;106897;1261;25418;-61
2023/10/11 02:11:24;;;;;;;;;;;;;;;13.44;43.73;102677.02;107186;1254;25337;-64
2023/10/11 02:13:52;;;;;;;;;;;;;;;13.43;43.65;102681.05;106943;1256;25309;-62
2023/10/11 02:16:19;;;;;;;;;;;;;;;13.43;43.89;102684.36;106761;1271;24350;-61
2023/10/11 02:18:58;;;;;;;;;;;;;;;13.43;43.99;102686.28;106831;1265;24182;-61
2023/10/11 02:21:26;;;;;;;;;;;;;;;13.42;43.84;102689.95;105993;1259;1003054;-60
2023/10/11 02:23:56;;;;;;;;;;;;;;;13.41;44.46;102689.95;106267;1253;1002968;-63
2023/10/11 02:26:28;;;;;;;;;;;;;;;13.40;44.99;102695.52;106809;1258;22459;-62
2023/10/11 02:28:55;;;;;;;;;;;;;;;13.39;45.35;102699.19;106048;1259;1003810;-62
2023/10/11 02:31:24;;;;;;;;;;;;;;;13.38;45.64;102702.85;106883;1260;25327;-62
2023/10/11 02:33:51;;;;;;;;;;;;;;;13.36;45.93;102708.27;106089;1256;1003537;-61
2023/10/11 02:36:20;;;;;;;;;;;;;;;13.35;46.06;102717.86;106793;1267;25388;-60
2023/10/11 02:38:47;;;;;;;;;;;;;;;13.34;46.37;102720.64;106845;1263;25330;-61
2023/10/11 02:41:20;;;;;;;;;;;;;;;13.34;46.61;102724.66;106685;1274;25452;-61
2023/10/11 02:43:49;;;;;;;;;;;;;;;13.32;46.89;102730.75;106761;1259;25328;-60
2023/10/11 02:46:16;;;;;;;;;;;;;;;13.30;47.29;102734.95;106873;1259;25430;-60
2023/10/11 02:48:46;;;;;;;;;;;;;;;13.28;47.46;102739.66;106905;1257;25423;-61
2023/10/11 02:51:16;;;;;;;;;;;;;;;13.27;47.57;102738.96;106822;1261;25327;-61
2023/10/11 02:53:43;;;;;;;;;;;;;;;13.28;47.40;102745.40;107161;1260;25333;-61
2023/10/11 02:56:11;;;;;;;;;;;;;;;13.28;47.32;102744.54;107090;1256;25497;-62
2023/10/11 02:58:41;;;;;;;;;;;;;;;13.29;47.35;102750.80;107173;1254;24311;-61
2023/10/11 03:01:14;;;;;;;;;;;;;;;13.29;47.37;102750.63;107039;1254;25305;-61
2023/10/11 03:03:49;;;;;;;;;;;;;;;13.29;47.11;102750.64;107067;1260;22511;-62
2023/10/11 03:06:18;;;;;;;;;;;;;;;13.27;46.39;102748.89;107129;1256;22614;-61
2023/10/11 03:08:45;;;;;;;;;;;;;;;13.25;45.94;102753.60;106827;1267;25328;-61
2023/10/11 03:11:15;;;;;;;;;;;;;;;13.23;45.79;102757.96;107106;1263;25441;-61
2023/10/11 03:13:43;;;;;;;;;;;;;;;13.23;45.50;102759.02;107083;1257;25511;-61
2023/10/11 03:16:13;;;;;;;;;;;;;;;13.21;45.56;102756.74;107152;1263;25335;-61
2023/10/11 03:18:41;;;;;;;;;;;;;;;13.19;45.85;102754.30;107127;1254;25459;-59
2023/10/11 03:21:20;;;;;;;;;;;;;;;13.18;45.87;102755.00;107139;1253;25317;-61
2023/10/11 03:23:48;;;;;;;;;;;;;;;13.15;45.73;102757.62;107091;1256;25327;-61
2023/10/11 03:26:22;;;;;;;;;;;;;;;13.12;45.77;102760.59;107150;1257;25308;-61
2023/10/11 03:28:57;;;;;;;;;;;;;;;13.10;45.80;102760.23;106879;1262;25299;-61
2023/10/11 03:31:31;;;;;;;;;;;;;;;13.09;45.87;102766.67;107152;1257;22517;-60
2023/10/11 03:33:59;;;;;;;;;;;;;;;13.08;45.90;102763.73;106456;1254;1003437;-61
2023/10/11 03:36:43;;;;;;;;;;;;;;;13.05;45.50;102764.77;106874;1269;22556;-61
2023/10/11 03:39:10;;;;;;;;;;;;;;;13.05;45.32;102766.69;107196;1256;25324;-61
2023/10/11 03:41:44;;;;;;;;;;;;;;;13.03;45.39;102763.50;107193;1253;25290;-61
2023/10/11 03:44:17;;;;;;;;;;;;;;;13.01;45.51;102764.73;107082;1254;25308;-61
2023/10/11 03:47:05;;;;;;;;;;;;;;;12.99;45.15;102768.55;107058;1254;25430;-61
2023/10/11 03:49:38;;;;;;;;;;;;;;;12.98;45.29;102772.21;107118;1253;25292;-60
2023/10/11 03:52:05;;;;;;;;;;;;;;;12.98;45.10;102769.79;106478;1254;1002840;-61
2023/10/11 03:54:36;;;;;;;;;;;;;;;12.96;44.97;102767.34;107153;1257;25324;-61
2023/10/11 03:57:05;;;;;;;;;;;;;;;12.93;44.95;102765.26;106155;1267;1003059;-61
2023/10/11 03:59:38;;;;;;;;;;;;;;;12.90;45.07;102773.43;106910;1258;25381;-61
2023/10/11 04:02:10;;;;;;;;;;;;;;;12.88;45.10;102771.70;106976;1263;25381;-61
2023/10/11 04:04:42;;;;;;;;;;;;;;;12.85;45.12;102774.65;106839;1267;25305;-61
2023/10/11 04:07:13;;;;;;;;;;;;;;;12.83;45.09;102775.00;106885;1263;25324;-61
2023/10/11 04:09:44;;;;;;;;;;;;;;;12.81;45.10;102772.73;106845;1263;22508;-60
2023/10/11 04:12:12;;;;;;;;;;;;;;;12.79;45.20;102775.70;106998;1257;25299;-61
2023/10/11 04:14:41;;;;;;;;;;;;;;;12.80;45.17;102780.05;107112;1254;25324;-61
2023/10/11 04:17:15;;;;;;;;;;;;;;;12.81;45.25;102779.17;107168;1270;25308;-62
2023/10/11 04:19:43;;;;;;;;;;;;;;;12.83;45.19;102783.70;107148;1253;25318;-61
2023/10/11 04:22:13;;;;;;;;;;;;;;;12.84;45.24;102789.63;107205;1253;22539;-61
2023/10/11 04:24:41;;;;;;;;;;;;;;;12.84;45.08;102799.02;107107;1263;25324;-60
2023/10/11 04:30:17;;;;;;;;;;;;;;;12.81;44.70;102811.23;107110;1262;25420;-61
2023/10/11 04:32:48;;;;;;;;;;;;;;;12.79;44.72;102812.98;106470;1254;1002990;-60
2023/10/11 04:38:04;;;;;;;;;;;;;;;12.76;44.88;102826.38;107060;1266;25327;-60
2023/10/11 04:45:51;;;;;;;;;;;;;;;12.74;45.24;102846.04;106367;1254;1003297;-61
2023/10/11 04:48:29;;;;;;;;;;;;;;;12.74;45.46;102856.66;106671;1266;24193;-61
2023/10/11 04:51:04;;;;;;;;;;;;;;;12.73;45.49;102857.02;106928;1257;23208;-60
2023/10/11 04:53:44;;;;;;;;;;;;;;;12.73;45.89;102861.20;106742;1260;22640;-60
2023/10/11 04:59:05;;;;;;;;;;;;;;;12.72;46.25;102871.30;107041;1263;23304;-60
2023/10/11 05:01:58;;;;;;;;;;;;;;;12.72;46.08;102872.33;106810;1263;25370;-63
2023/10/11 05:04:33;;;;;;;;;;;;;;;12.72;46.06;102876.34;107056;1259;25455;-60
2023/10/11 05:07:09;;;;;;;;;;;;;;;12.74;46.19;102870.77;107130;1257;25327;-60
2023/10/11 05:09:39;;;;;;;;;;;;;;;12.75;46.20;102870.26;107127;1255;23310;-60
2023/10/11 05:12:08;;;;;;;;;;;;;;;12.76;46.39;102872.87;106787;1273;24339;-61
2023/10/11 05:19:55;;;;;;;;;;;;;;;12.79;46.77;102886.12;106859;1270;24214;-59
2023/10/11 05:32:49;;;;;;;;;;;;;;;12.89;47.43;102898.50;107048;1257;25324;-61
2023/10/11 05:52:14;;;;;;;;;;;;;;;13.18;47.74;102914.98;106875;1272;25436;-62
2023/10/11 05:54:41;;;;;;;;;;;;;;;13.22;47.76;102909.94;107129;1259;25321;-61
2023/10/11 05:57:08;;;;;;;;;;;;;;;13.26;47.82;102913.78;107129;1250;25408;-61
2023/10/11 05:59:35;;;;;;;;;;;;;;;13.30;47.87;102914.83;107144;1264;25296;-61
2023/10/11 06:02:07;;;;;;;;;;;;;;;13.35;47.99;102915.89;106875;1267;25299;-61
2023/10/11 06:04:39;;;;;;;;;;;;;;;13.44;48.03;102916.41;107129;1266;25476;-60
2023/10/11 06:07:07;;;;;;;;;;;;;;;13.54;47.88;102918.34;107182;1267;25290;-61
2023/10/11 06:09:43;;;;;;;;;;;;;;;13.65;47.71;102921.13;107141;1256;25516;-60
2023/10/11 06:12:29;;;;;;;;;;;;;;;13.76;47.66;102924.80;107173;1260;25299;-61
2023/10/11 06:14:56;;;;;;;;;;;;;;;13.85;47.60;102927.74;107129;1255;23262;-62
2023/10/11 06:17:41;;;;;;;;;;;;;;;13.92;47.62;102931.22;107066;1254;25487;-61
2023/10/11 06:20:27;;;;;;;;;;;;;;;13.96;47.73;102933.84;107163;1263;25324;-62
2023/10/11 06:22:55;;;;;;;;;;;;;;;13.99;47.78;102936.98;106440;1260;1003263;-59
2023/10/11 06:28:13;;;;;;;;;;;;;;;14.03;47.54;102943.42;107068;1257;25376;-61
2023/10/11 06:30:42;;;;;;;;;;;;;;;14.06;47.52;102946.05;106888;1263;23948;-60
2023/10/11 06:33:12;;;;;;;;;;;;;;;14.09;47.57;102949.36;107020;1254;25346;-61
2023/10/11 06:35:49;;;;;;;;;;;;;;;14.14;47.69;102947.95;106901;1256;25309;-62
2023/10/11 06:38:16;;;;;;;;;;;;;;;14.23;47.77;102945.14;107118;1262;22586;-62
2023/10/11 06:40:54;;;;;;;;;;;;;;;14.35;47.87;102948.46;107241;1260;25318;-62
2023/10/11 06:43:22;;;;;;;;;;;;;;;14.46;47.46;102950.17;106407;1263;1003512;-60
2023/10/11 06:45:49;;;;;;;;;;;;;;;14.54;47.21;102956.08;106935;1254;25407;-60
2023/10/11 06:48:17;;;;;;;;;;;;;;;14.62;46.96;102951.70;106979;1267;25328;-62
2023/10/11 06:50:46;;;;;;;;;;;;;;;14.70;46.53;102947.82;107176;1267;25312;-63
2023/10/11 06:53:13;;;;;;;;;;;;;;;14.77;46.34;102949.36;107129;1267;25366;-61
2023/10/11 06:55:40;;;;;;;;;;;;;;;14.82;46.57;102954.24;107182;1257;25324;-61
2023/10/11 06:58:15;;;;;;;;;;;;;;;14.86;46.65;102959.11;107135;1255;25456;-59
2023/10/11 07:00:45;;;;;;;;;;;;;;;14.90;46.22;102956.66;106856;1273;25296;-61
2023/10/11 07:05:56;;;;;;;;;;;;;;;14.89;45.77;102958.92;107115;1253;25462;-62
2023/10/11 07:08:34;;;;;;;;;;;;;;;14.90;45.92;102958.76;107123;1263;25306;-61
2023/10/11 07:11:16;;;;;;;;;;;;;;;14.90;46.20;102957.52;107107;1257;25293;-61
2023/10/11 07:13:49;;;;;;;;;;;;;;;14.91;46.04;102956.13;107136;1267;25347;-62
2023/10/11 07:16:19;;;;;;;;;;;;;;;14.92;45.93;102958.05;107200;1257;23849;-62
2023/10/11 07:18:46;;;;;;;;;;;;;;;14.93;46.04;102951.91;107110;1257;25455;-62
2023/10/11 07:21:15;;;;;;;;;;;;;;;14.94;46.11;102956.27;106930;1260;25337;-62
2023/10/11 07:29:01;;;;;;;;;;;;;;;15.05;46.63;102957.80;107055;1270;25412;-62
2023/10/11 07:31:35;;;;;;;;;;;;;;;15.11;46.76;102957.59;107126;1257;25388;-62
2023/10/11 07:34:09;;;;;;;;;;;;;;;15.17;46.95;102959.28;106871;1260;25326;-62
2023/10/11 07:36:37;;;;;;;;;;;;;;;15.23;47.28;102955.41;106865;1253;25331;-63
2023/10/11 07:39:14;;;;;;;;;;;;;;;15.31;47.56;102952.91;106817;1257;24217;-62
2023/10/11 07:41:42;;;;;;;;;;;;;;;15.39;47.37;102955.66;106737;1274;25458;-61
2023/10/11 07:44:12;;;;;;;;;;;;;;;15.46;47.49;102956.17;107193;1260;25315;-61
2023/10/11 07:46:40;;;;;;;;;;;;;;;15.54;47.36;102952.97;106201;1260;1002870;-62
2023/10/11 07:49:07;;;;;;;;;;;;;;;15.62;47.51;102953.77;107049;1257;25327;-62
2023/10/11 07:51:39;;;;;;;;;;;;;;;15.69;47.71;102952.85;107075;1260;25340;-61
2023/10/11 07:54:19;;;;;;;;;;;;;;;15.75;47.46;102952.27;107133;1257;22632;-62
2023/10/11 07:56:47;;;;;;;;;;;;;;;15.83;47.27;102948.36;106849;1264;25370;-62
2023/10/11 07:59:14;;;;;;;;;;;;;;;15.90;46.70;102945.84;107055;1267;24212;-62
2023/10/11 08:01:45;;;;;;;;;;;;;;;15.97;46.75;102950.50;107109;1258;25382;-61
2023/10/11 08:04:16;;;;;;;;;;;;;;;16.03;47.09;102953.93;107126;1261;25446;-62
2023/10/11 08:06:46;;;;;;;;;;;;;;;16.09;47.30;102954.22;106852;1256;437429;-62
2023/10/11 08:09:19;;;;;;;;;;;;;;;16.16;47.17;102953.10;107114;1258;25333;-61
2023/10/11 08:11:52;;;;;;;;;;;;;;;16.24;47.04;102959.52;107134;1261;25337;-63
2023/10/11 08:14:22;;;;;;;;;;;;;;;16.29;46.98;102957.69;107175;1252;25296;-62
2023/10/11 08:16:49;;;;;;;;;;;;;;;16.34;46.37;102962.73;107122;1258;25305;-61
2023/10/11 08:19:17;;;;;;;;;;;;;;;16.39;46.42;102966.02;106869;1273;25318;-61
2023/10/11 08:21:57;;;;;;;;;;;;;;;16.46;46.13;102966.80;107114;1257;25296;-61
2023/10/11 08:24:25;;;;;;;;;;;;;;;16.53;45.54;102968.17;107132;1263;25321;-62
2023/10/11 08:26:53;;;;;;;;;;;;;;;16.63;45.44;102971.37;107088;1254;25344;-62
2023/10/11 08:29:29;;;;;;;;;;;;;;;16.73;45.63;102969.14;107172;1255;22497;-62
2023/10/11 08:31:59;;;;;;;;;;;;;;;16.83;45.90;102970.26;107160;1265;22620;-61
2023/10/11 08:34:27;;;;;;;;;;;;;;;16.92;45.23;102967.86;107164;1263;25303;-61
2023/10/11 08:36:57;;;;;;;;;;;;;;;17.01;43.44;102967.92;107161;1263;25373;-61
2023/10/11 08:39:35;;;;;;;;;;;;;;;17.11;41.58;102966.73;107145;1266;25321;-62
2023/10/11 08:42:11;;;;;;;;;;;;;;;17.23;40.22;102970.08;107132;1267;26473;-62
2023/10/11 08:44:44;;;;;;;;;;;;;;;17.34;39.49;102964.61;107192;1264;23210;-62
2023/10/11 08:47:15;;;;;;;;;;;;;;;17.45;39.02;102965.34;107048;1264;25296;-62
2023/10/11 08:49:48;;;;;;;;;;;;;;;17.56;38.70;102961.16;107058;1257;25446;-62
2023/10/11 08:52:17;;;;;;;;;;;;;;;17.65;38.52;102966.98;106887;1265;26459;-62
2023/10/11 08:54:44;;;;;;;;;;;;;;;17.75;38.25;102969.09;106819;1261;25412;-62
2023/10/11 08:57:13;;;;;;;;;;;;;;;17.83;38.23;102967.73;106894;1263;25379;-62
2023/10/11 08:59:48;;;;;;;;;;;;;;;17.91;37.96;102969.18;106791;1273;22495;-61
2023/10/11 09:02:17;;;;;;;;;;;;;;;18.00;37.82;102971.33;106737;1273;22736;-61
2023/10/11 09:04:59;;;;;;;;;;;;;;;18.09;37.65;102974.67;106861;1260;25449;-61
2023/10/11 09:07:40;;;;;;;;;;;;;;;18.17;36.94;102975.75;106907;1266;25544;-61
2023/10/11 09:10:24;;;;;;;;;;;;;;;18.25;36.65;102975.25;106976;1251;25365;-62
2023/10/11 09:12:56;;;;;;;;;;;;;;;18.33;36.49;102968.79;106722;1267;25439;-61
2023/10/11 09:15:43;;;;;;;;;;;;;;;18.40;36.30;102974.61;106892;1257;25324;-61
2023/10/11 09:18:14;;;;;;;;;;;;;;;18.47;36.32;102973.28;106853;1256;25504;-60
2023/10/11 09:23:34;;;;;;;;;;;;;;;18.58;36.12;102963.73;107253;1257;25767;-60
2023/10/11 09:26:02;;;;;;;;;;;;;;;18.63;36.29;102969.96;106901;1264;25296;-60
2023/10/11 09:28:33;;;;;;;;;;;;;;;18.68;36.26;102965.47;107065;1258;25319;-60
2023/10/11 09:31:09;;;;;;;;;;;;;;;18.73;35.86;102963.80;106804;1264;25363;-60
2023/10/11 09:33:38;;;;;;;;;;;;;;;18.78;35.98;102960.70;107052;1263;25315;-60
2023/10/11 09:36:08;;;;;;;;;;;;;;;18.83;36.32;102959.71;107081;1267;25216;-60
2023/10/11 09:38:42;;;;;;;;;;;;;;;18.89;35.84;102962.56;106870;1263;25469;-60
2023/10/11 09:41:10;;;;;;;;;;;;;;;18.95;35.72;102960.66;106638;1270;25482;-60
2023/10/11 09:43:40;;;;;;;;;;;;;;;19.01;35.96;102962.11;107159;1270;25311;-60
2023/10/11 09:46:11;;;;;;;;;;;;;;;19.07;36.05;102960.23;106909;1270;22504;-60
2023/10/11 09:48:40;;;;;;;;;;;;;;;19.12;35.82;102955.38;107130;1266;25364;-61
2023/10/11 09:51:08;;;;;;;;;;;;;;;19.18;36.07;102952.77;106842;1267;23172;-61
2023/10/11 09:53:41;;;;;;;;;;;;;;;19.22;35.55;102951.10;107153;1274;22544;-60
2023/10/11 09:56:31;;;;;;;;;;;;;;;19.26;35.41;102950.47;107091;1270;25311;-61
2023/10/11 09:59:22;;;;;;;;;;;;;;;19.29;35.46;102946.00;106359;1281;25376;-62
2023/10/11 10:01:51;;;;;;;;;;;;;;;19.29;35.64;102947.58;106713;1257;25350;-61
2023/10/11 10:04:20;;;;;;;;;;;;;;;19.32;36.17;102947.87;106608;1270;25391;-60
2023/10/11 10:07:07;;;;;;;;;;;;;;;19.37;36.27;102944.09;106592;1271;22509;-61
2023/10/11 10:09:52;;;;;;;;;;;;;;;19.43;36.08;102942.17;106493;1279;25396;-61
2023/10/11 10:12:25;;;;;;;;;;;;;;;19.51;35.73;102940.21;106353;1264;25329;-60
2023/10/11 10:15:08;;;;;;;;;;;;;;;19.56;35.44;102936.95;106307;1263;25417;-61
2023/10/11 10:17:37;;;;;;;;;;;;;;;19.59;35.18;102932.81;106464;1277;22495;-61
2023/10/11 10:20:41;;;;;;;;;;;;;;;19.61;35.27;102931.52;106449;1279;24399;-60
2023/10/11 10:23:14;;;;;;;;;;;;;;;19.65;35.00;102933.56;106574;1263;22578;-61
2023/10/11 10:25:50;;;;;;;;;;;;;;;19.66;34.88;102927.35;106378;1273;25314;-60
2023/10/11 10:28:45;;;;;;;;;;;;;;;19.68;34.94;102929.05;106198;1281;25507;-60
2023/10/11 10:31:19;;;;;;;;;;;;;;;19.71;34.94;102927.06;106055;1269;25375;-62
2023/10/11 10:34:07;;;;;;;;;;;;;;;19.72;34.91;102931.43;105991;1287;25341;-63
2023/10/11 10:36:37;;;;;;;;;;;;;;;19.74;34.92;102925.39;106070;1285;25934;-60
2023/10/11 10:39:12;;;;;;;;;;;;;;;19.76;35.06;102925.70;106244;1285;24226;-61
2023/10/11 10:41:40;;;;;;;;;;;;;;;19.79;35.42;102927.21;106227;1264;24219;-61
2023/10/11 10:44:17;;;;;;;;;;;;;;;19.82;35.19;102926.77;106268;1263;25466;-61
2023/10/11 10:46:53;;;;;;;;;;;;;;;19.86;34.59;102923.84;106338;1273;25566;-61
2023/10/11 10:49:21;;;;;;;;;;;;;;;19.88;34.47;102923.79;106056;1269;25344;-61
2023/10/11 10:51:48;;;;;;;;;;;;;;;19.90;34.46;102917.04;106325;1276;25469;-61
2023/10/11 10:54:17;;;;;;;;;;;;;;;19.92;34.54;102914.71;106234;1276;25801;-61
2023/10/11 10:56:47;;;;;;;;;;;;;;;19.95;34.67;102917.63;106276;1267;22627;-61
2023/10/11 10:59:15;;;;;;;;;;;;;;;19.97;34.60;102917.57;106297;1280;24289;-61
2023/10/11 11:01:44;;;;;;;;;;;;;;;20.00;34.77;102921.36;106253;1279;23237;-61
2023/10/11 11:04:11;;;;;;;;;;;;;;;20.03;34.68;102921.27;106332;1283;22643;-60
2023/10/11 11:06:44;;;;;;;;;;;;;;;20.07;34.39;102919.05;105896;1267;25323;-61
2023/10/11 11:09:30;;;;;;;;;;;;;;;20.12;34.41;102918.92;106159;1274;25306;-61
2023/10/11 11:12:14;;;;;;;;;;;;;;;20.16;34.58;102919.85;106666;1278;25448;-60
2023/10/11 11:14:54;;;;;;;;;;;;;;;20.20;34.45;102920.48;106960;1267;25328;-61
2023/10/11 11:17:23;;;;;;;;;;;;;;;20.23;34.22;102919.34;107113;1267;24483;-61
2023/10/11 11:20:12;;;;;;;;;;;;;;;20.26;34.29;102918.56;107106;1251;25405;-61
2023/10/11 11:22:39;;;;;;;;;;;;;;;20.30;34.08;102918.45;107167;1251;25306;-61
2023/10/11 11:25:16;;;;;;;;;;;;;;;20.34;34.05;102917.11;107205;1266;24244;-61
2023/10/11 11:27:44;;;;;;;;;;;;;;;20.35;34.01;102919.89;106992;1270;25411;-60
2023/10/11 11:30:29;;;;;;;;;;;;;;;20.37;34.23;102916.30;107088;1254;24170;-61
2023/10/11 11:32:56;;;;;;;;;;;;;;;20.40;34.04;102910.39;107126;1270;25324;-61
2023/10/11 11:35:29;;;;;;;;;;;;;;;20.41;34.25;102912.50;107158;1252;25443;-61
2023/10/11 11:38:05;;;;;;;;;;;;;;;20.41;34.27;102914.08;107081;1267;25373;-61
2023/10/11 11:40:36;;;;;;;;;;;;;;;20.42;34.20;102915.09;107057;1266;25321;-61
2023/10/11 11:43:03;;;;;;;;;;;;;;;20.43;34.36;102917.38;106886;1267;25382;-60
2023/10/11 11:45:35;;;;;;;;;;;;;;;20.45;34.39;102916.95;106937;1254;24200;-61
2023/10/11 11:48:05;;;;;;;;;;;;;;;20.46;34.00;102912.89;106712;1254;22499;-60
2023/10/11 11:50:37;;;;;;;;;;;;;;;20.46;33.94;102915.52;106777;1275;22627;-61
2023/10/11 11:53:04;;;;;;;;;;;;;;;20.47;34.34;102915.13;106933;1254;25293;-61
2023/10/11 11:55:34;;;;;;;;;;;;;;;20.48;34.17;102913.35;106856;1260;25449;-61
2023/10/11 11:58:10;;;;;;;;;;;;;;;20.48;34.05;102914.41;107039;1252;25315;-61
2023/10/11 12:00:45;;;;;;;;;;;;;;;20.36;34.38;102911.75;106862;1270;25315;-60
2023/10/11 12:03:12;;;;;;;;;;;;;;;20.32;34.77;102906.57;107104;1254;25364;-60
2023/10/11 12:05:43;;;;;;;;;;;;;;;20.33;34.71;102906.55;106915;1256;25324;-60
2023/10/11 12:08:18;;;;;;;;;;;;;;;20.33;34.42;102898.10;107135;1254;25324;-61
2023/10/11 12:10:49;;;;;;;;;;;;;;;20.33;34.20;102899.67;107104;1254;22501;-60
2023/10/11 12:13:23;;;;;;;;;;;;;;;20.33;33.97;102898.09;107111;1266;25463;-60
2023/10/11 12:15:54;;;;;;;;;;;;;;;20.34;33.99;102900.19;107113;1257;24338;-61
2023/10/11 12:18:22;;;;;;;;;;;;;;;20.33;34.10;102897.04;107033;1266;25372;-61
2023/10/11 12:20:50;;;;;;;;;;;;;;;20.32;34.29;102897.41;106890;1274;25379;-60
2023/10/11 12:23:18;;;;;;;;;;;;;;;20.32;34.19;102893.73;107118;1266;25449;-60
2023/10/11 12:25:47;;;;;;;;;;;;;;;20.31;34.33;102894.11;107181;1267;25314;-60
2023/10/11 12:28:14;;;;;;;;;;;;;;;20.30;34.63;102892.89;106911;1270;25329;-60
2023/10/11 12:30:45;;;;;;;;;;;;;;;20.29;34.43;102892.73;107124;1267;25463;-61
2023/10/11 12:33:12;;;;;;;;;;;;;;;20.28;34.23;102890.30;107111;1270;25455;-61
2023/10/11 12:35:40;;;;;;;;;;;;;;;20.26;34.35;102885.77;107048;1266;25368;-61
2023/10/11 12:38:08;;;;;;;;;;;;;;;20.25;34.40;102887.05;106815;1270;24231;-61
2023/10/11 12:40:35;;;;;;;;;;;;;;;20.35;34.45;102885.17;107111;1267;22674;-60
2023/10/11 12:43:06;;;;;;;;;;;;;;;20.33;34.60;102883.44;107070;1267;25372;-60
2023/10/11 12:45:35;;;;;;;;;;;;;;;20.36;34.59;102882.48;107199;1267;25333;-61
2023/10/11 12:48:06;;;;;;;;;;;;;;;20.36;34.82;102880.00;106941;1269;22509;-60
2023/10/11 12:50:36;;;;;;;;;;;;;;;20.35;34.68;102880.22;107062;1274;24375;-59
2023/10/11 12:53:10;;;;;;;;;;;;;;;20.35;34.56;102880.05;106905;1267;25382;-61
2023/10/11 12:55:41;;;;;;;;;;;;;;;20.34;34.28;102874.25;106854;1254;25369;-60
2023/10/11 12:58:11;;;;;;;;;;;;;;;20.33;34.45;102873.60;107042;1267;25480;-60
2023/10/11 13:00:59;;;;;;;;;;;;;;;20.25;34.83;102869.23;106855;1267;22575;-59
2023/10/11 13:03:29;;;;;;;;;;;;;;;20.05;35.53;102865.20;106860;1269;25341;-59
2023/10/11 13:05:56;;;;;;;;;;;;;;;20.00;35.88;102863.04;106695;1267;22501;-61
2023/10/11 13:08:28;;;;;;;;;;;;;;;19.98;35.83;102858.16;106833;1267;26785;-59
2023/10/11 13:10:55;;;;;;;;;;;;;;;19.97;35.76;102859.09;106816;1266;25296;-61
2023/10/11 13:13:23;;;;;;;;;;;;;;;19.96;35.49;102854.35;106935;1267;23836;-60
2023/10/11 13:16:00;;;;;;;;;;;;;;;19.96;35.49;102852.06;106901;1266;25321;-61
2023/10/11 13:18:27;;;;;;;;;;;;;;;20.08;35.22;102846.79;107096;1267;25345;-60
2023/10/11 13:20:59;;;;;;;;;;;;;;;20.20;35.27;102845.40;107221;1266;25390;-61
2023/10/11 13:23:29;;;;;;;;;;;;;;;20.21;35.09;102845.21;107277;1267;22640;-60
2023/10/11 13:25:59;;;;;;;;;;;;;;;20.21;35.12;102839.23;107071;1267;22501;-60
2023/10/11 13:28:28;;;;;;;;;;;;;;;20.20;34.82;102839.24;106854;1270;25322;-60
2023/10/11 13:30:55;;;;;;;;;;;;;;;20.18;34.76;102839.42;107194;1266;25472;-60
2023/10/11 13:33:22;;;;;;;;;;;;;;;20.17;34.48;102833.31;107034;1266;25296;-61
2023/10/11 13:35:50;;;;;;;;;;;;;;;20.15;34.62;102833.71;107109;1266;25382;-60
2023/10/11 13:38:17;;;;;;;;;;;;;;;20.14;34.86;102831.63;107084;1266;25391;-60
2023/10/11 13:40:45;;;;;;;;;;;;;;;20.12;34.98;102828.67;107092;1267;25474;-61
2023/10/11 13:43:12;;;;;;;;;;;;;;;20.10;34.99;102821.35;107239;1266;22505;-61
2023/10/11 13:45:45;;;;;;;;;;;;;;;20.08;35.11;102823.69;106172;1267;1003731;-60
2023/10/11 13:48:13;;;;;;;;;;;;;;;20.06;35.55;102824.48;106961;1274;25362;-60